sensor_id;sensor_type;location;lat;lon;timestamp;pressure;altitude;pressure_sealevel;temperature;humidity
63552;BME280;49698;48.072;7.800;2023-08-08T00:02:26;99636.03;;;13.34;95.15
63552;BME280;49698;48.072;7.800;2023-08-08T00:04:54;99637.41;;;13.31;95.25
63552;BME280;49698;48.072;7.800;2023-08-08T00:07:23;99639.63;;;13.29;95.64
63552;BME280;49698;48.072;7.800;2023-08-08T00:09:51;99636.41;;;13.27;95.91
63552;BME280;49698;48.072;7.800;2023-08-08T00:12:20;99625.38;;;13.24;95.98
63552;BME280;49698;48.072;7.800;2023-08-08T00:14:48;99637.56;;;13.21;96.07
63552;BME280;49698;48.072;7.800;2023-08-08T00:17:16;99638.13;;;13.18;96.20
63552;BME280;49698;48.072;7.800;2023-08-08T00:19:45;99641.41;;;13.15;96.22
63552;BME280;49698;48.072;7.800;2023-08-08T00:22:13;99632.31;;;13.11;96.25
63552;BME280;49698;48.072;7.800;2023-08-08T00:24:41;99635.59;;;13.08;96.53
63552;BME280;49698;48.072;7.800;2023-08-08T00:27:09;99634.56;;;13.04;96.42
63552;BME280;49698;48.072;7.800;2023-08-08T00:29:40;99632.44;;;13.01;96.45
63552;BME280;49698;48.072;7.800;2023-08-08T00:32:11;99630.38;;;12.97;96.53
63552;BME280;49698;48.072;7.800;2023-08-08T00:34:39;99625.81;;;12.93;96.67
63552;BME280;49698;48.072;7.800;2023-08-08T00:37:07;99625.91;;;12.88;96.73
63552;BME280;49698;48.072;7.800;2023-08-08T00:39:35;99624.09;;;12.83;96.82
63552;BME280;49698;48.072;7.800;2023-08-08T00:42:04;99619.25;;;12.80;97.07
63552;BME280;49698;48.072;7.800;2023-08-08T00:44:32;99622.53;;;12.77;97.24
63552;BME280;49698;48.072;7.800;2023-08-08T00:47:02;99618.56;;;12.75;97.43
63552;BME280;49698;48.072;7.800;2023-08-08T00:49:30;99615.63;;;12.71;97.38
63552;BME280;49698;48.072;7.800;2023-08-08T00:51:58;99615.09;;;12.69;97.61
63552;BME280;49698;48.072;7.800;2023-08-08T00:54:26;99616.00;;;12.64;97.42
63552;BME280;49698;48.072;7.800;2023-08-08T00:56:55;99622.25;;;12.60;97.51
63552;BME280;49698;48.072;7.800;2023-08-08T00:59:23;99623.94;;;12.56;97.62
63552;BME280;49698;48.072;7.800;2023-08-08T01:01:51;99616.94;;;12.55;97.79
63552;BME280;49698;48.072;7.800;2023-08-08T01:04:24;99616.94;;;12.55;97.96
63552;BME280;49698;48.072;7.800;2023-08-08T01:06:58;99618.53;;;12.56;98.05
63552;BME280;49698;48.072;7.800;2023-08-08T01:09:33;99617.75;;;12.55;97.84
63552;BME280;49698;48.072;7.800;2023-08-08T01:12:06;99607.75;;;12.56;97.85
63552;BME280;49698;48.072;7.800;2023-08-08T01:14:36;99603.47;;;12.55;97.49
63552;BME280;49698;48.072;7.800;2023-08-08T01:17:05;99593.75;;;12.54;97.73
63552;BME280;49698;48.072;7.800;2023-08-08T01:19:35;99598.34;;;12.53;97.60
63552;BME280;49698;48.072;7.800;2023-08-08T01:22:06;99607.00;;;12.50;97.68
63552;BME280;49698;48.072;7.800;2023-08-08T01:24:38;99601.13;;;12.48;97.80
63552;BME280;49698;48.072;7.800;2023-08-08T01:27:07;99604.09;;;12.46;97.75
63552;BME280;49698;48.072;7.800;2023-08-08T01:29:36;99612.16;;;12.46;98.12
63552;BME280;49698;48.072;7.800;2023-08-08T01:32:04;99607.88;;;12.45;97.90
63552;BME280;49698;48.072;7.800;2023-08-08T01:34:33;99608.97;;;12.44;97.89
63552;BME280;49698;48.072;7.800;2023-08-08T01:37:07;99608.19;;;12.44;98.11
63552;BME280;49698;48.072;7.800;2023-08-08T01:39:39;99603.88;;;12.43;97.92
63552;BME280;49698;48.072;7.800;2023-08-08T01:42:08;99608.44;;;12.42;98.14
63552;BME280;49698;48.072;7.800;2023-08-08T01:44:40;99609.28;;;12.43;98.45
63552;BME280;49698;48.072;7.800;2023-08-08T01:47:09;99601.47;;;12.41;98.59
63552;BME280;49698;48.072;7.800;2023-08-08T01:49:37;99589.09;;;12.40;98.63
63552;BME280;49698;48.072;7.800;2023-08-08T01:52:06;99581.56;;;12.37;98.62
63552;BME280;49698;48.072;7.800;2023-08-08T01:54:34;99590.22;;;12.34;98.53
63552;BME280;49698;48.072;7.800;2023-08-08T01:57:04;99588.41;;;12.30;98.58
63552;BME280;49698;48.072;7.800;2023-08-08T01:59:32;99598.16;;;12.26;98.67
63552;BME280;49698;48.072;7.800;2023-08-08T02:02:00;99589.84;;;12.22;98.93
63552;BME280;49698;48.072;7.800;2023-08-08T02:04:29;99590.16;;;12.20;99.25
63552;BME280;49698;48.072;7.800;2023-08-08T02:06:57;99594.75;;;12.20;99.43
63552;BME280;49698;48.072;7.800;2023-08-08T02:09:31;99593.13;;;12.19;99.52
63552;BME280;49698;48.072;7.800;2023-08-08T02:11:59;99594.50;;;12.16;100.00
63552;BME280;49698;48.072;7.800;2023-08-08T02:14:29;99596.97;;;12.13;99.86
63552;BME280;49698;48.072;7.800;2023-08-08T02:16:57;99599.44;;;12.09;99.67
63552;BME280;49698;48.072;7.800;2023-08-08T02:19:25;99590.03;;;12.07;99.87
63552;BME280;49698;48.072;7.800;2023-08-08T02:21:54;99592.81;;;12.02;99.57
63552;BME280;49698;48.072;7.800;2023-08-08T02:24:22;99595.25;;;11.98;99.63
63552;BME280;49698;48.072;7.800;2023-08-08T02:26:50;99593.44;;;11.93;99.87
63552;BME280;49698;48.072;7.800;2023-08-08T02:29:19;99592.41;;;11.89;100.00
63552;BME280;49698;48.072;7.800;2023-08-08T02:31:48;99598.63;;;11.85;100.00
63552;BME280;49698;48.072;7.800;2023-08-08T02:34:17;99603.78;;;11.81;100.00
63552;BME280;49698;48.072;7.800;2023-08-08T02:36:45;99606.50;;;11.76;100.00
63552;BME280;49698;48.072;7.800;2023-08-08T02:39:13;99600.09;;;11.72;100.00
63552;BME280;49698;48.072;7.800;2023-08-08T02:41:41;99600.38;;;11.70;100.00
63552;BME280;49698;48.072;7.800;2023-08-08T02:44:11;99597.97;;;11.69;100.00
63552;BME280;49698;48.072;7.800;2023-08-08T02:46:39;99598.25;;;11.67;100.00
63552;BME280;49698;48.072;7.800;2023-08-08T02:49:09;99596.66;;;11.66;100.00
63552;BME280;49698;48.072;7.800;2023-08-08T02:51:37;99590.47;;;11.66;100.00
63552;BME280;49698;48.072;7.800;2023-08-08T02:54:05;99592.63;;;11.64;100.00
63552;BME280;49698;48.072;7.800;2023-08-08T02:56:35;99589.72;;;11.60;100.00
63552;BME280;49698;48.072;7.800;2023-08-08T02:59:03;99585.97;;;11.56;100.00
63552;BME280;49698;48.072;7.800;2023-08-08T03:01:31;99589.75;;;11.55;100.00
63552;BME280;49698;48.072;7.800;2023-08-08T03:04:01;99591.13;;;11.52;100.00
63552;BME280;49698;48.072;7.800;2023-08-08T03:06:30;99579.84;;;11.50;100.00
63552;BME280;49698;48.072;7.800;2023-08-08T03:08:58;99580.41;;;11.47;100.00
63552;BME280;49698;48.072;7.800;2023-08-08T03:11:27;99583.38;;;11.46;100.00
63552;BME280;49698;48.072;7.800;2023-08-08T03:13:56;99584.75;;;11.43;100.00
63552;BME280;49698;48.072;7.800;2023-08-08T03:16:25;99581.03;;;11.39;100.00
63552;BME280;49698;48.072;7.800;2023-08-08T03:18:54;99578.59;;;11.38;100.00
63552;BME280;49698;48.072;7.800;2023-08-08T03:21:23;99583.19;;;11.37;100.00
63552;BME280;49698;48.072;7.800;2023-08-08T03:23:53;99578.38;;;11.34;100.00
63552;BME280;49698;48.072;7.800;2023-08-08T03:26:21;99585.94;;;11.32;100.00
63552;BME280;49698;48.072;7.800;2023-08-08T03:28:50;99589.72;;;11.31;100.00
63552;BME280;49698;48.072;7.800;2023-08-08T03:31:27;99594.06;;;11.27;100.00
63552;BME280;49698;48.072;7.800;2023-08-08T03:33:56;99590.84;;;11.25;100.00
63552;BME280;49698;48.072;7.800;2023-08-08T03:36:24;99594.09;;;11.22;100.00
63552;BME280;49698;48.072;7.800;2023-08-08T03:38:53;99591.97;;;11.19;100.00
63552;BME280;49698;48.072;7.800;2023-08-08T03:41:21;99590.91;;;11.15;100.00
63552;BME280;49698;48.072;7.800;2023-08-08T03:43:50;99591.50;;;11.12;100.00
63552;BME280;49698;48.072;7.800;2023-08-08T03:46:18;99591.75;;;11.10;100.00
63552;BME280;49698;48.072;7.800;2023-08-08T03:48:47;99585.59;;;11.10;100.00
63552;BME280;49698;48.072;7.800;2023-08-08T03:51:16;99586.16;;;11.07;100.00
63552;BME280;49698;48.072;7.800;2023-08-08T03:53:44;99594.22;;;11.07;100.00
63552;BME280;49698;48.072;7.800;2023-08-08T03:56:13;99593.41;;;11.06;100.00
63552;BME280;49698;48.072;7.800;2023-08-08T03:58:42;99589.94;;;11.06;100.00
63552;BME280;49698;48.072;7.800;2023-08-08T04:01:10;99595.31;;;11.06;100.00
63552;BME280;49698;48.072;7.800;2023-08-08T04:03:39;99599.09;;;11.05;100.00
63552;BME280;49698;48.072;7.800;2023-08-08T04:06:07;99596.41;;;11.05;100.00
63552;BME280;49698;48.072;7.800;2023-08-08T04:08:35;99598.28;;;11.04;100.00
63552;BME280;49698;48.072;7.800;2023-08-08T04:11:03;99603.94;;;11.02;100.00
63552;BME280;49698;48.072;7.800;2023-08-08T04:13:33;99605.03;;;11.01;100.00
63552;BME280;49698;48.072;7.800;2023-08-08T04:16:02;99598.31;;;10.99;100.00
63552;BME280;49698;48.072;7.800;2023-08-08T04:18:30;99595.91;;;10.97;100.00
63552;BME280;49698;48.072;7.800;2023-08-08T04:20:58;99598.06;;;10.95;100.00
63552;BME280;49698;48.072;7.800;2023-08-08T04:23:26;99600.25;;;10.93;100.00
63552;BME280;49698;48.072;7.800;2023-08-08T04:25:54;99608.31;;;10.93;100.00
63552;BME280;49698;48.072;7.800;2023-08-08T04:28:22;99606.97;;;10.91;100.00
63552;BME280;49698;48.072;7.800;2023-08-08T04:30:52;99604.28;;;10.91;100.00
63552;BME280;49698;48.072;7.800;2023-08-08T04:33:20;99606.16;;;10.90;100.00
63552;BME280;49698;48.072;7.800;2023-08-08T04:35:48;99604.56;;;10.89;100.00
63552;BME280;49698;48.072;7.800;2023-08-08T04:38:17;99604.56;;;10.89;100.00
63552;BME280;49698;48.072;7.800;2023-08-08T04:40:45;99603.47;;;10.90;100.00
63552;BME280;49698;48.072;7.800;2023-08-08T04:43:13;99606.97;;;10.91;100.00
63552;BME280;49698;48.072;7.800;2023-08-08T04:45:41;99603.19;;;10.92;100.00
63552;BME280;49698;48.072;7.800;2023-08-08T04:48:11;99602.13;;;10.93;100.00
63552;BME280;49698;48.072;7.800;2023-08-08T04:50:39;99605.63;;;10.93;100.00
63552;BME280;49698;48.072;7.800;2023-08-08T04:53:07;99607.22;;;10.94;100.00
63552;BME280;49698;48.072;7.800;2023-08-08T04:55:35;99602.09;;;10.98;100.00
63552;BME280;49698;48.072;7.800;2023-08-08T04:58:04;99611.19;;;11.02;100.00
63552;BME280;49698;48.072;7.800;2023-08-08T05:00:32;99617.91;;;11.05;100.00
63552;BME280;49698;48.072;7.800;2023-08-08T05:03:00;99620.06;;;11.08;100.00
63552;BME280;49698;48.072;7.800;2023-08-08T05:05:30;99630.22;;;11.11;100.00
63552;BME280;49698;48.072;7.800;2023-08-08T05:07:58;99631.28;;;11.15;100.00
63552;BME280;49698;48.072;7.800;2023-08-08T05:10:26;99618.88;;;11.19;100.00
63552;BME280;49698;48.072;7.800;2023-08-08T05:12:54;99619.94;;;11.23;100.00
63552;BME280;49698;48.072;7.800;2023-08-08T05:15:22;99617.47;;;11.26;100.00
63552;BME280;49698;48.072;7.800;2023-08-08T05:17:50;99622.00;;;11.31;100.00
63552;BME280;49698;48.072;7.800;2023-08-08T05:20:20;99613.34;;;11.34;100.00
63552;BME280;49698;48.072;7.800;2023-08-08T05:22:50;99600.94;;;11.38;100.00
63552;BME280;49698;48.072;7.800;2023-08-08T05:25:18;99607.38;;;11.42;100.00
63552;BME280;49698;48.072;7.800;2023-08-08T05:27:46;99602.50;;;11.44;99.90
63552;BME280;49698;48.072;7.800;2023-08-08T05:30:16;99599.53;;;11.46;99.69
63552;BME280;49698;48.072;7.800;2023-08-08T05:32:44;99605.16;;;11.49;99.69
63552;BME280;49698;48.072;7.800;2023-08-08T05:35:13;99599.16;;;11.58;99.39
63552;BME280;49698;48.072;7.800;2023-08-08T05:37:41;99596.66;;;11.66;98.73
63552;BME280;49698;48.072;7.800;2023-08-08T05:40:11;99605.44;;;11.77;98.23
63552;BME280;49698;48.072;7.800;2023-08-08T05:42:39;99602.38;;;11.89;97.56
63552;BME280;49698;48.072;7.800;2023-08-08T05:45:08;99601.16;;;12.00;96.93
63552;BME280;49698;48.072;7.800;2023-08-08T05:47:36;99610.50;;;12.08;96.36
63552;BME280;49698;48.072;7.800;2023-08-08T05:50:05;99601.81;;;12.16;96.08
63552;BME280;49698;48.072;7.800;2023-08-08T05:52:34;99607.03;;;12.26;95.70
63552;BME280;49698;48.072;7.800;2023-08-08T05:55:02;99621.50;;;12.35;95.38
63552;BME280;49698;48.072;7.800;2023-08-08T05:57:32;99608.44;;;12.42;95.06
63552;BME280;49698;48.072;7.800;2023-08-08T06:00:00;99614.03;;;12.51;94.59
63552;BME280;49698;48.072;7.800;2023-08-08T06:02:38;99617.34;;;12.62;94.31
63552;BME280;49698;48.072;7.800;2023-08-08T06:05:07;99607.81;;;12.69;93.73
63552;BME280;49698;48.072;7.800;2023-08-08T06:07:38;99608.25;;;12.77;93.42
63552;BME280;49698;48.072;7.800;2023-08-08T06:10:07;99614.88;;;12.84;93.05
63552;BME280;49698;48.072;7.800;2023-08-08T06:12:37;99611.31;;;12.89;93.12
63552;BME280;49698;48.072;7.800;2023-08-08T06:15:06;99613.94;;;12.94;92.56
63552;BME280;49698;48.072;7.800;2023-08-08T06:17:35;99604.19;;;12.98;92.44
63552;BME280;49698;48.072;7.800;2023-08-08T06:20:04;99600.59;;;13.03;92.37
63552;BME280;49698;48.072;7.800;2023-08-08T06:22:33;99603.19;;;13.08;92.27
63552;BME280;49698;48.072;7.800;2023-08-08T06:25:01;99601.50;;;13.12;92.11
63552;BME280;49698;48.072;7.800;2023-08-08T06:27:30;99599.81;;;13.16;91.70
63552;BME280;49698;48.072;7.800;2023-08-08T06:29:59;99601.66;;;13.20;91.38
63552;BME280;49698;48.072;7.800;2023-08-08T06:32:28;99600.00;;;13.25;90.89
63552;BME280;49698;48.072;7.800;2023-08-08T06:34:56;99609.91;;;13.29;90.22
63552;BME280;49698;48.072;7.800;2023-08-08T06:37:24;99614.72;;;13.32;89.87
63552;BME280;49698;48.072;7.800;2023-08-08T06:39:52;99607.91;;;13.35;89.52
63552;BME280;49698;48.072;7.800;2023-08-08T06:42:20;99611.63;;;13.39;89.14
63552;BME280;49698;48.072;7.800;2023-08-08T06:44:55;99594.53;;;13.43;88.93
63552;BME280;49698;48.072;7.800;2023-08-08T06:47:24;99603.16;;;13.45;88.28
63552;BME280;49698;48.072;7.800;2023-08-08T06:49:53;99600.97;;;13.48;87.93
63552;BME280;49698;48.072;7.800;2023-08-08T06:52:21;99604.97;;;13.50;87.77
63552;BME280;49698;48.072;7.800;2023-08-08T06:54:49;99597.88;;;13.54;87.54
63552;BME280;49698;48.072;7.800;2023-08-08T06:57:17;99588.88;;;13.59;87.51
63552;BME280;49698;48.072;7.800;2023-08-08T06:59:45;99596.59;;;13.65;87.19
63552;BME280;49698;48.072;7.800;2023-08-08T07:02:18;99594.00;;;13.74;86.94
63552;BME280;49698;48.072;7.800;2023-08-08T07:04:48;99591.69;;;13.81;86.49
63552;BME280;49698;48.072;7.800;2023-08-08T07:07:16;99593.63;;;13.94;86.19
63552;BME280;49698;48.072;7.800;2023-08-08T07:09:45;99594.41;;;14.09;85.83
63552;BME280;49698;48.072;7.800;2023-08-08T07:12:13;99591.91;;;14.26;85.38
63552;BME280;49698;48.072;7.800;2023-08-08T07:14:41;99606.22;;;14.40;84.52
63552;BME280;49698;48.072;7.800;2023-08-08T07:17:09;99599.38;;;14.57;84.14
63552;BME280;49698;48.072;7.800;2023-08-08T07:19:37;99595.44;;;14.77;83.39
63552;BME280;49698;48.072;7.800;2023-08-08T07:22:07;99591.44;;;14.97;82.39
63552;BME280;49698;48.072;7.800;2023-08-08T07:24:36;99589.03;;;15.17;81.77
63552;BME280;49698;48.072;7.800;2023-08-08T07:27:05;99586.19;;;15.45;80.85
63552;BME280;49698;48.072;7.800;2023-08-08T07:29:33;99576.63;;;15.70;79.88
63552;BME280;49698;48.072;7.800;2023-08-08T07:32:03;99581.03;;;15.97;78.82
63552;BME280;49698;48.072;7.800;2023-08-08T07:34:32;99582.19;;;16.22;77.95
63552;BME280;49698;48.072;7.800;2023-08-08T07:37:00;99588.31;;;16.45;76.67
63552;BME280;49698;48.072;7.800;2023-08-08T07:39:29;99588.97;;;16.68;75.10
63552;BME280;49698;48.072;7.800;2023-08-08T07:41:57;99585.69;;;16.89;74.07
63552;BME280;49698;48.072;7.800;2023-08-08T07:44:26;99587.06;;;17.03;73.27
63552;BME280;49698;48.072;7.800;2023-08-08T07:46:54;99585.47;;;17.28;72.56
63552;BME280;49698;48.072;7.800;2023-08-08T07:49:22;99588.13;;;17.54;71.41
63552;BME280;49698;48.072;7.800;2023-08-08T07:51:50;99585.00;;;17.73;70.10
63552;BME280;49698;48.072;7.800;2023-08-08T07:54:18;99585.75;;;17.91;69.37
63552;BME280;49698;48.072;7.800;2023-08-08T07:56:47;99582.63;;;18.10;68.67
63552;BME280;49698;48.072;7.800;2023-08-08T07:59:16;99584.31;;;18.23;68.18
63552;BME280;49698;48.072;7.800;2023-08-08T08:01:44;99579.22;;;18.43;67.47
63552;BME280;49698;48.072;7.800;2023-08-08T08:04:12;99577.53;;;18.59;66.70
63552;BME280;49698;48.072;7.800;2023-08-08T08:06:40;99574.69;;;18.76;66.41
63552;BME280;49698;48.072;7.800;2023-08-08T08:09:08;99566.25;;;18.90;65.33
63552;BME280;49698;48.072;7.800;2023-08-08T08:11:36;99566.97;;;18.99;64.74
63552;BME280;49698;48.072;7.800;2023-08-08T08:14:06;99563.97;;;19.13;64.98
63552;BME280;49698;48.072;7.800;2023-08-08T08:16:34;99554.25;;;19.24;64.08
63552;BME280;49698;48.072;7.800;2023-08-08T08:19:02;99554.03;;;19.42;63.68
63552;BME280;49698;48.072;7.800;2023-08-08T08:21:31;99554.63;;;19.60;63.22
63552;BME280;49698;48.072;7.800;2023-08-08T08:23:59;99552.06;;;19.75;62.62
63552;BME280;49698;48.072;7.800;2023-08-08T08:26:34;99554.69;;;19.84;62.33
63552;BME280;49698;48.072;7.800;2023-08-08T08:33:03;99549.91;;;20.18;61.32
63552;BME280;49698;48.072;7.800;2023-08-08T08:35:34;99553.94;;;20.36;61.29
63552;BME280;49698;48.072;7.800;2023-08-08T08:38:02;99541.50;;;20.63;60.95
63552;BME280;49698;48.072;7.800;2023-08-08T08:40:35;99547.59;;;20.85;59.47
63552;BME280;49698;48.072;7.800;2023-08-08T08:43:04;99548.00;;;20.99;58.82
63552;BME280;49698;48.072;7.800;2023-08-08T08:45:36;99538.16;;;21.10;58.01
63552;BME280;49698;48.072;7.800;2023-08-08T08:48:09;99543.78;;;21.17;57.92
63552;BME280;49698;48.072;7.800;2023-08-08T08:50:38;99539.84;;;21.31;57.59
63552;BME280;49698;48.072;7.800;2023-08-08T08:53:07;99549.16;;;21.42;55.83
63552;BME280;49698;48.072;7.800;2023-08-08T08:55:35;99546.50;;;21.45;55.99
63552;BME280;49698;48.072;7.800;2023-08-08T08:58:13;99555.69;;;21.53;55.20
63552;BME280;49698;48.072;7.800;2023-08-08T09:00:44;99547.47;;;21.53;53.34
63552;BME280;49698;48.072;7.800;2023-08-08T09:03:13;99546.84;;;21.44;52.89
63552;BME280;49698;48.072;7.800;2023-08-08T09:05:42;99552.50;;;21.35;52.26
63552;BME280;49698;48.072;7.800;2023-08-08T09:08:12;99545.81;;;21.20;51.90
63552;BME280;49698;48.072;7.800;2023-08-08T09:11:22;99544.84;;;21.13;52.20
63552;BME280;49698;48.072;7.800;2023-08-08T09:13:51;99546.69;;;21.24;52.52
63552;BME280;49698;48.072;7.800;2023-08-08T09:16:21;99533.88;;;21.41;52.33
63552;BME280;49698;48.072;7.800;2023-08-08T09:18:51;99535.56;;;21.61;51.52
63552;BME280;49698;48.072;7.800;2023-08-08T09:21:19;99540.16;;;21.73;51.07
63552;BME280;49698;48.072;7.800;2023-08-08T09:23:48;99539.09;;;21.78;50.25
63552;BME280;49698;48.072;7.800;2023-08-08T09:26:16;99532.75;;;21.73;50.19
63552;BME280;49698;48.072;7.800;2023-08-08T09:28:45;99536.63;;;21.72;50.00
63552;BME280;49698;48.072;7.800;2023-08-08T09:31:13;99532.75;;;21.73;49.92
63552;BME280;49698;48.072;7.800;2023-08-08T09:33:42;99537.94;;;21.79;49.26
63552;BME280;49698;48.072;7.800;2023-08-08T09:36:14;99523.97;;;21.84;49.11
63552;BME280;49698;48.072;7.800;2023-08-08T09:38:42;99529.63;;;21.91;49.23
63552;BME280;49698;48.072;7.800;2023-08-08T09:41:10;99520.69;;;21.94;48.99
63552;BME280;49698;48.072;7.800;2023-08-08T09:43:38;99523.97;;;22.00;48.71
63552;BME280;49698;48.072;7.800;2023-08-08T09:46:08;99516.78;;;22.11;48.63
63552;BME280;49698;48.072;7.800;2023-08-08T09:48:39;99519.78;;;22.21;48.34
63552;BME280;49698;48.072;7.800;2023-08-08T09:51:09;99519.94;;;22.29;47.91
63552;BME280;49698;48.072;7.800;2023-08-08T09:53:38;99513.69;;;22.28;46.87
63552;BME280;49698;48.072;7.800;2023-08-08T09:56:07;99510.22;;;22.31;47.20
63552;BME280;49698;48.072;7.800;2023-08-08T09:58:35;99506.91;;;22.41;46.93
63552;BME280;49698;48.072;7.800;2023-08-08T10:01:05;99499.78;;;22.56;47.18
63552;BME280;49698;48.072;7.800;2023-08-08T10:03:33;99499.69;;;22.72;46.86
63552;BME280;49698;48.072;7.800;2023-08-08T10:06:05;99499.91;;;22.83;46.50
63552;BME280;49698;48.072;7.800;2023-08-08T10:08:35;99499.97;;;22.86;46.30
63552;BME280;49698;48.072;7.800;2023-08-08T10:11:05;99495.00;;;22.92;45.93
63552;BME280;49698;48.072;7.800;2023-08-08T10:13:35;99490.38;;;22.96;45.75
63552;BME280;49698;48.072;7.800;2023-08-08T10:16:04;99485.03;;;23.03;46.03
63552;BME280;49698;48.072;7.800;2023-08-08T10:18:38;99489.50;;;23.11;45.47
63552;BME280;49698;48.072;7.800;2023-08-08T10:21:06;99485.47;;;23.05;44.88
63552;BME280;49698;48.072;7.800;2023-08-08T10:23:39;99483.47;;;23.02;45.52
63552;BME280;49698;48.072;7.800;2023-08-08T10:26:18;99491.28;;;23.00;45.50
63552;BME280;49698;48.072;7.800;2023-08-08T10:28:55;99492.00;;;22.97;45.26
63552;BME280;49698;48.072;7.800;2023-08-08T10:31:25;99496.19;;;22.91;45.71
63552;BME280;49698;48.072;7.800;2023-08-08T10:34:04;99490.75;;;22.75;45.06
63552;BME280;49698;48.072;7.800;2023-08-08T10:36:44;99488.41;;;22.54;45.93
63552;BME280;49698;48.072;7.800;2023-08-08T10:39:16;99485.66;;;22.54;46.30
63552;BME280;49698;48.072;7.800;2023-08-08T10:41:46;99487.00;;;22.64;46.49
63552;BME280;49698;48.072;7.800;2023-08-08T10:44:21;99485.59;;;22.70;46.24
63552;BME280;49698;48.072;7.800;2023-08-08T10:46:51;99487.94;;;22.71;46.30
63552;BME280;49698;48.072;7.800;2023-08-08T10:49:20;99489.25;;;22.78;46.21
63552;BME280;49698;48.072;7.800;2023-08-08T10:51:49;99486.50;;;22.78;46.12
63552;BME280;49698;48.072;7.800;2023-08-08T10:54:23;99483.41;;;22.79;45.67
63552;BME280;49698;48.072;7.800;2023-08-08T10:56:55;99497.03;;;22.76;45.73
63552;BME280;49698;48.072;7.800;2023-08-08T10:59:27;99488.75;;;22.72;45.44
63552;BME280;49698;48.072;7.800;2023-08-08T11:01:59;99486.44;;;22.74;45.49
63552;BME280;49698;48.072;7.800;2023-08-08T11:04:30;99482.47;;;22.71;44.76
63552;BME280;49698;48.072;7.800;2023-08-08T11:06:59;99478.09;;;22.67;45.46
63552;BME280;49698;48.072;7.800;2023-08-08T11:09:29;99482.31;;;22.64;45.15
63552;BME280;49698;48.072;7.800;2023-08-08T11:11:58;99479.09;;;22.59;45.40
63552;BME280;49698;48.072;7.800;2023-08-08T11:14:26;99475.84;;;22.53;45.90
63552;BME280;49698;48.072;7.800;2023-08-08T11:16:54;99476.59;;;22.50;45.83
63552;BME280;49698;48.072;7.800;2023-08-08T11:19:23;99473.91;;;22.54;46.04
63552;BME280;49698;48.072;7.800;2023-08-08T11:21:51;99474.03;;;22.61;45.81
63552;BME280;49698;48.072;7.800;2023-08-08T11:24:19;99480.88;;;22.70;45.91
63552;BME280;49698;48.072;7.800;2023-08-08T11:26:49;99476.66;;;22.73;45.61
63552;BME280;49698;48.072;7.800;2023-08-08T11:29:18;99473.09;;;22.73;45.70
63552;BME280;49698;48.072;7.800;2023-08-08T11:31:48;99469.38;;;22.61;45.63
63552;BME280;49698;48.072;7.800;2023-08-08T11:34:16;99465.47;;;22.43;45.80
63552;BME280;49698;48.072;7.800;2023-08-08T11:36:45;99471.75;;;22.24;46.18
63552;BME280;49698;48.072;7.800;2023-08-08T11:39:14;99473.72;;;22.08;46.72
63552;BME280;49698;48.072;7.800;2023-08-08T11:41:43;99474.97;;;21.94;46.97
63552;BME280;49698;48.072;7.800;2023-08-08T11:44:16;99480.19;;;21.84;47.30
63552;BME280;49698;48.072;7.800;2023-08-08T11:46:59;99469.38;;;21.71;47.78
63552;BME280;49698;48.072;7.800;2023-08-08T11:49:27;99469.94;;;21.61;47.95
63552;BME280;49698;48.072;7.800;2023-08-08T11:51:56;99472.47;;;21.54;48.06
63552;BME280;49698;48.072;7.800;2023-08-08T11:54:27;99476.19;;;21.46;48.28
63552;BME280;49698;48.072;7.800;2023-08-08T11:56:55;99481.13;;;21.40;48.70
63552;BME280;49698;48.072;7.800;2023-08-08T11:59:25;99469.22;;;21.33;49.04
63552;BME280;49698;48.072;7.800;2023-08-08T12:01:53;99461.25;;;21.28;49.18
63552;BME280;49698;48.072;7.800;2023-08-08T12:04:24;99471.03;;;21.29;49.27
63552;BME280;49698;48.072;7.800;2023-08-08T12:07:01;99471.94;;;21.33;49.50
63552;BME280;49698;48.072;7.800;2023-08-08T12:09:31;99463.84;;;21.36;49.22
63552;BME280;49698;48.072;7.800;2023-08-08T12:12:00;99463.94;;;21.40;49.12
63552;BME280;49698;48.072;7.800;2023-08-08T12:14:30;99460.91;;;21.45;49.31
63552;BME280;49698;48.072;7.800;2023-08-08T12:17:00;99460.22;;;21.48;49.09
63552;BME280;49698;48.072;7.800;2023-08-08T12:19:29;99457.47;;;21.48;49.23
63552;BME280;49698;48.072;7.800;2023-08-08T12:21:57;99456.69;;;21.47;49.32
63552;BME280;49698;48.072;7.800;2023-08-08T12:24:25;99450.78;;;21.45;50.26
63552;BME280;49698;48.072;7.800;2023-08-08T12:26:54;99440.56;;;21.42;50.56
63552;BME280;49698;48.072;7.800;2023-08-08T12:29:22;99440.19;;;21.44;50.60
63552;BME280;49698;48.072;7.800;2023-08-08T12:31:52;99440.66;;;21.46;50.27
63552;BME280;49698;48.072;7.800;2023-08-08T12:34:20;99434.81;;;21.47;50.21
63552;BME280;49698;48.072;7.800;2023-08-08T12:36:48;99438.00;;;21.49;49.83
63552;BME280;49698;48.072;7.800;2023-08-08T12:39:16;99435.69;;;21.52;50.09
63552;BME280;49698;48.072;7.800;2023-08-08T12:41:44;99440.81;;;21.53;50.11
63552;BME280;49698;48.072;7.800;2023-08-08T12:44:13;99444.78;;;21.56;50.23
63552;BME280;49698;48.072;7.800;2023-08-08T12:46:41;99440.91;;;21.57;50.46
63552;BME280;49698;48.072;7.800;2023-08-08T12:49:12;99449.44;;;21.55;50.55
63552;BME280;49698;48.072;7.800;2023-08-08T12:51:40;99446.28;;;21.53;50.63
63552;BME280;49698;48.072;7.800;2023-08-08T12:54:08;99439.94;;;21.49;50.59
63552;BME280;49698;48.072;7.800;2023-08-08T12:56:36;99447.19;;;21.41;50.51
63552;BME280;49698;48.072;7.800;2023-08-08T12:59:04;99442.66;;;21.33;50.86
63552;BME280;49698;48.072;7.800;2023-08-08T13:01:33;99437.81;;;21.27;51.16
63552;BME280;49698;48.072;7.800;2023-08-08T13:04:01;99440.00;;;21.21;51.37
63552;BME280;49698;48.072;7.800;2023-08-08T13:06:43;99438.31;;;21.16;51.45
63552;BME280;49698;48.072;7.800;2023-08-08T13:09:12;99437.03;;;21.10;51.60
63552;BME280;49698;48.072;7.800;2023-08-08T13:11:40;99440.00;;;21.05;51.77
63552;BME280;49698;48.072;7.800;2023-08-08T13:14:08;99441.84;;;21.01;51.87